createdAt,value
2023-01-30T00:02:04.329Z,100.00
2023-01-30T00:04:37.016Z,100.00
2023-01-30T00:07:07.151Z,100.00
2023-01-30T00:09:37.090Z,100.00
2023-01-30T00:12:07.685Z,100.00
2023-01-30T00:14:37.683Z,100.00
2023-01-30T00:17:07.386Z,100.00
2023-01-30T00:19:40.028Z,100.00
2023-01-30T00:22:09.871Z,100.00
2023-01-30T00:24:39.648Z,100.00
2023-01-30T00:27:09.456Z,100.00
2023-01-30T00:29:39.163Z,100.00
2023-01-30T00:32:09.114Z,100.00
2023-01-30T00:34:41.466Z,100.00
2023-01-30T00:37:11.302Z,100.00
2023-01-30T00:39:41.166Z,100.00
2023-01-30T00:42:24.883Z,100.00
2023-01-30T00:45:06.962Z,100.00
2023-01-30T00:47:36.793Z,100.00
2023-01-30T00:50:09.994Z,100.00
2023-01-30T00:52:39.884Z,100.00
2023-01-30T00:55:11.397Z,100.00
2023-01-30T00:57:41.127Z,100.00
2023-01-30T01:00:12.942Z,100.00
2023-01-30T01:02:42.760Z,100.00
2023-01-30T01:05:15.502Z,100.00
2023-01-30T01:07:45.262Z,100.00
2023-01-30T01:10:16.725Z,100.00
2023-01-30T01:12:46.761Z,100.00
2023-01-30T01:15:17.740Z,100.00
2023-01-30T01:17:47.641Z,100.00
2023-01-30T01:20:20.621Z,100.00
2023-01-30T01:22:52.149Z,100.00
2023-01-30T01:25:22.018Z,100.00
2023-01-30T01:27:52.592Z,100.00
2023-01-30T01:30:22.786Z,100.00
2023-01-30T01:32:52.606Z,100.00
2023-01-30T01:35:25.040Z,100.00
2023-01-30T01:37:56.819Z,100.00
2023-01-30T01:40:39.284Z,100.00
2023-01-30T01:43:18.836Z,100.00
2023-01-30T01:45:51.719Z,100.00
2023-01-30T01:48:28.385Z,100.00
2023-01-30T01:51:05.259Z,100.00
2023-01-30T01:53:37.827Z,100.00
2023-01-30T01:56:10.420Z,100.00
2023-01-30T01:58:44.010Z,100.00
2023-01-30T02:01:13.998Z,100.00
2023-01-30T02:03:48.643Z,100.00
2023-01-30T02:06:21.904Z,100.00
2023-01-30T02:08:56.504Z,100.00
2023-01-30T02:11:33.206Z,100.00
2023-01-30T02:14:04.486Z,100.00
2023-01-30T02:16:34.656Z,100.00
2023-01-30T02:19:04.641Z,100.00
2023-01-30T02:22:11.922Z,100.00
2023-01-30T02:25:08.960Z,100.00
2023-01-30T02:28:06.010Z,100.00
2023-01-30T02:31:03.954Z,100.00
2023-01-30T02:33:42.560Z,100.00
2023-01-30T02:36:24.231Z,100.00
2023-01-30T02:39:04.660Z,100.00
2023-01-30T02:41:42.171Z,100.00
2023-01-30T02:44:19.335Z,100.00
2023-01-30T02:46:57.907Z,100.00
2023-01-30T02:49:34.923Z,100.00
2023-01-30T02:52:07.005Z,100.00
2023-01-30T02:54:36.800Z,100.00
2023-01-30T02:57:06.699Z,100.00
2023-01-30T02:59:41.076Z,100.00
2023-01-30T03:02:40.836Z,100.00
2023-01-30T03:05:36.458Z,100.00
2023-01-30T03:08:21.003Z,100.00
2023-01-30T03:10:57.514Z,100.00
2023-01-30T03:13:35.504Z,100.00
2023-01-30T03:16:10.856Z,100.00
2023-01-30T03:18:43.927Z,100.00
2023-01-30T03:21:15.707Z,100.00
2023-01-30T03:23:48.434Z,100.00
2023-01-30T03:26:23.152Z,100.00
2023-01-30T03:28:54.105Z,100.00
2023-01-30T03:31:23.918Z,100.00
2023-01-30T03:33:56.464Z,100.00
2023-01-30T03:36:27.043Z,100.00
2023-01-30T03:38:56.980Z,100.00
2023-01-30T03:41:26.941Z,100.00
2023-01-30T03:43:56.801Z,100.00
2023-01-30T03:46:26.912Z,100.00
2023-01-30T03:48:59.359Z,100.00
2023-01-30T03:51:29.099Z,100.00
2023-01-30T03:53:58.907Z,100.00
2023-01-30T03:56:28.778Z,100.00
2023-01-30T03:58:58.575Z,100.00
2023-01-30T04:01:28.540Z,100.00
2023-01-30T04:04:01.072Z,100.00
2023-01-30T04:06:30.844Z,100.00
2023-01-30T04:09:00.724Z,100.00
2023-01-30T04:11:30.472Z,100.00
2023-01-30T04:14:00.204Z,100.00
2023-01-30T04:16:30.827Z,100.00
2023-01-30T04:19:03.296Z,100.00
2023-01-30T04:21:33.253Z,100.00
2023-01-30T04:24:03.028Z,100.00
2023-01-30T04:26:32.820Z,100.00
2023-01-30T04:29:02.877Z,100.00
2023-01-30T04:31:32.644Z,100.00
2023-01-30T04:34:05.078Z,100.00
2023-01-30T04:36:34.819Z,100.00
2023-01-30T04:39:04.585Z,100.00
2023-01-30T04:41:34.605Z,100.00
2023-01-30T04:44:04.566Z,100.00
2023-01-30T04:46:34.476Z,100.00
2023-01-30T04:49:06.855Z,100.00
2023-01-30T04:51:36.617Z,100.00
2023-01-30T04:54:06.803Z,100.00
2023-01-30T04:56:36.730Z,100.00
2023-01-30T04:59:06.672Z,100.00
2023-01-30T05:01:38.643Z,100.00
2023-01-30T05:04:11.309Z,100.00
2023-01-30T05:06:41.031Z,100.00
2023-01-30T05:09:12.824Z,100.00
2023-01-30T05:11:42.718Z,100.00
2023-01-30T05:14:12.481Z,100.00
2023-01-30T05:16:42.518Z,100.00
2023-01-30T05:19:16.156Z,100.00
2023-01-30T05:21:45.943Z,100.00
2023-01-30T05:24:15.777Z,100.00
2023-01-30T05:26:45.644Z,100.00
2023-01-30T05:29:15.594Z,100.00
2023-01-30T05:31:45.569Z,100.00
2023-01-30T05:34:17.894Z,100.00
2023-01-30T05:36:47.772Z,100.00
2023-01-30T05:39:17.858Z,100.00
2023-01-30T05:41:47.628Z,100.00
2023-01-30T05:44:17.483Z,100.00
2023-01-30T05:46:47.312Z,100.00
2023-01-30T05:49:20.101Z,100.00
2023-01-30T05:51:51.544Z,100.00
2023-01-30T05:54:21.377Z,100.00
2023-01-30T05:56:52.733Z,100.00
2023-01-30T05:59:22.609Z,100.00
2023-01-30T06:01:52.580Z,100.00
2023-01-30T06:04:25.384Z,100.00
2023-01-30T06:06:55.351Z,100.00
2023-01-30T06:09:25.054Z,100.00
2023-01-30T06:11:55.801Z,100.00
2023-01-30T06:14:25.703Z,100.00
2023-01-30T06:16:55.705Z,100.00
2023-01-30T06:19:28.298Z,100.00
2023-01-30T06:21:58.149Z,100.00
2023-01-30T06:24:27.919Z,100.00
2023-01-30T06:26:57.713Z,100.00
2023-01-30T06:29:27.550Z,100.00
2023-01-30T06:31:57.284Z,100.00
2023-01-30T06:34:29.718Z,100.00
2023-01-30T06:36:59.490Z,100.00
2023-01-30T06:39:29.358Z,100.00
2023-01-30T06:41:59.111Z,100.00
2023-01-30T06:44:28.891Z,100.00
2023-01-30T06:46:58.745Z,100.00
2023-01-30T06:49:31.095Z,100.00
2023-01-30T06:52:00.949Z,100.00
2023-01-30T06:54:30.692Z,100.00
2023-01-30T06:57:00.590Z,100.00
2023-01-30T06:59:30.410Z,100.00
2023-01-30T07:02:00.333Z,100.00
2023-01-30T07:04:32.669Z,100.00
2023-01-30T07:07:02.414Z,100.00
2023-01-30T07:09:32.231Z,100.00
2023-01-30T07:12:01.954Z,100.00
2023-01-30T07:14:31.771Z,100.00
2023-01-30T07:17:01.634Z,100.00
2023-01-30T07:19:36.413Z,100.00
2023-01-30T07:22:06.329Z,100.00
2023-01-30T07:24:36.141Z,100.00
2023-01-30T07:27:06.044Z,100.00
2023-01-30T07:29:35.862Z,100.00
2023-01-30T07:32:06.168Z,100.00
2023-01-30T07:34:38.510Z,100.00
2023-01-30T07:37:08.468Z,100.00
2023-01-30T07:39:38.191Z,100.00
2023-01-30T07:42:08.422Z,100.00
2023-01-30T07:44:38.314Z,100.00
2023-01-30T07:47:08.484Z,100.00
2023-01-30T07:49:40.925Z,100.00
2023-01-30T07:52:10.813Z,100.00
2023-01-30T07:54:40.673Z,100.00
2023-01-30T07:57:10.448Z,100.00
2023-01-30T07:59:40.425Z,100.00
2023-01-30T08:02:12.100Z,100.00
2023-01-30T08:04:44.623Z,100.00
2023-01-30T08:07:14.631Z,100.00
2023-01-30T08:09:44.820Z,100.00
2023-01-30T08:12:14.808Z,100.00
2023-01-30T08:14:44.715Z,100.00
2023-01-30T08:17:16.335Z,100.00
2023-01-30T08:19:48.699Z,100.00
2023-01-30T08:22:18.579Z,100.00
2023-01-30T08:24:49.004Z,100.00
2023-01-30T08:27:19.028Z,100.00
2023-01-30T08:29:48.897Z,100.00
2023-01-30T08:32:18.605Z,100.00
2023-01-30T08:34:50.872Z,100.00
2023-01-30T08:37:20.692Z,100.00
2023-01-30T08:39:57.771Z,100.00
2023-01-30T08:42:27.638Z,100.00
2023-01-30T08:44:59.633Z,100.00
2023-01-30T08:47:29.429Z,100.00
2023-01-30T08:50:01.951Z,100.00
2023-01-30T08:52:31.743Z,100.00
2023-01-30T08:55:03.006Z,100.00
2023-01-30T08:57:33.571Z,100.00
2023-01-30T09:00:03.343Z,100.00
2023-01-30T09:02:33.171Z,100.00
2023-01-30T09:05:05.785Z,100.00
2023-01-30T09:07:36.007Z,100.00
2023-01-30T09:10:09.067Z,100.00
2023-01-30T09:12:38.897Z,100.00
2023-01-30T09:15:12.792Z,100.00
2023-01-30T09:17:44.801Z,100.00
2023-01-30T09:20:19.099Z,100.00
2023-01-30T09:22:49.677Z,100.00
2023-01-30T09:25:19.931Z,100.00
2023-01-30T09:27:51.952Z,100.00
2023-01-30T09:30:22.806Z,100.00
2023-01-30T09:33:01.511Z,100.00
2023-01-30T09:35:34.482Z,100.00
2023-01-30T09:38:05.819Z,100.00
2023-01-30T09:40:41.680Z,100.00
2023-01-30T09:43:31.796Z,100.00
2023-01-30T09:46:10.133Z,100.00
2023-01-30T09:48:49.713Z,100.00
2023-01-30T09:51:49.303Z,100.00
2023-01-30T09:54:24.778Z,100.00
2023-01-30T09:57:04.384Z,100.00
2023-01-30T09:59:42.252Z,100.00
2023-01-30T10:02:27.747Z,100.00
2023-01-30T10:05:02.010Z,100.00
2023-01-30T10:07:47.177Z,100.00
2023-01-30T10:10:26.585Z,100.00
2023-01-30T10:13:06.987Z,100.00
2023-01-30T10:15:50.884Z,100.00
2023-01-30T10:18:41.694Z,100.00
2023-01-30T10:21:23.206Z,100.00
2023-01-30T10:24:07.876Z,99.74
2023-01-30T10:26:37.829Z,98.76
2023-01-30T10:29:11.043Z,98.72
2023-01-30T10:31:52.507Z,98.13
2023-01-30T10:34:26.189Z,98.06
2023-01-30T10:37:01.441Z,97.76
2023-01-30T10:39:49.714Z,97.44
2023-01-30T10:42:30.621Z,98.06
2023-01-30T10:45:09.723Z,98.32
2023-01-30T10:48:02.099Z,97.57
2023-01-30T10:50:53.285Z,97.62
2023-01-30T10:53:27.246Z,97.94
2023-01-30T10:56:06.947Z,96.89
2023-01-30T10:58:45.099Z,97.40
2023-01-30T11:01:21.345Z,97.40
2023-01-30T11:03:54.699Z,96.95
2023-01-30T11:06:27.279Z,96.08
2023-01-30T11:08:59.529Z,96.54
2023-01-30T11:11:36.862Z,96.91
2023-01-30T11:14:08.998Z,96.29
2023-01-30T11:16:46.959Z,96.41
2023-01-30T11:19:21.644Z,95.56
2023-01-30T11:21:54.283Z,96.08
2023-01-30T11:24:26.683Z,94.97
2023-01-30T11:27:12.017Z,95.08
2023-01-30T11:29:42.886Z,95.54
2023-01-30T11:32:18.013Z,95.16
2023-01-30T11:35:04.050Z,95.69
2023-01-30T11:37:36.195Z,95.65
2023-01-30T11:40:21.698Z,95.17
2023-01-30T11:42:56.582Z,94.07
2023-01-30T11:45:30.695Z,95.27
2023-01-30T11:48:05.001Z,94.88
2023-01-30T11:50:49.240Z,92.90
2023-01-30T11:53:33.308Z,93.20
2023-01-30T11:56:09.100Z,93.71
2023-01-30T11:58:46.653Z,93.24
2023-01-30T12:01:17.969Z,93.46
2023-01-30T12:03:51.862Z,92.67
2023-01-30T12:06:27.089Z,91.97
2023-01-30T12:08:57.952Z,92.67
2023-01-30T12:11:31.107Z,92.75
2023-01-30T12:14:16.003Z,92.52
2023-01-30T12:17:01.852Z,92.06
2023-01-30T12:19:42.844Z,91.57
2023-01-30T12:22:23.936Z,91.26
2023-01-30T12:25:01.850Z,91.00
2023-01-30T12:27:48.482Z,91.24
2023-01-30T12:30:32.391Z,90.67
2023-01-30T12:33:04.616Z,90.94
2023-01-30T12:35:50.036Z,90.50
2023-01-30T12:38:34.475Z,89.11
2023-01-30T12:41:15.540Z,91.24
2023-01-30T12:44:01.577Z,90.85
2023-01-30T12:46:47.574Z,90.86
2023-01-30T12:49:40.947Z,90.99
2023-01-30T12:52:34.036Z,89.90
2023-01-30T12:55:17.899Z,90.02
2023-01-30T12:57:56.911Z,90.57
2023-01-30T13:00:38.602Z,89.69
2023-01-30T13:03:33.413Z,89.33
2023-01-30T13:06:13.833Z,87.95
2023-01-30T13:08:57.221Z,88.50
2023-01-30T13:11:48.325Z,88.42
2023-01-30T13:14:28.884Z,87.17
2023-01-30T13:17:18.451Z,88.91
2023-01-30T13:19:59.456Z,87.20
2023-01-30T13:22:37.366Z,88.61
2023-01-30T13:25:18.559Z,87.86
2023-01-30T13:27:56.461Z,87.57
2023-01-30T13:30:28.762Z,87.52
2023-01-30T13:33:01.584Z,87.32
2023-01-30T13:35:39.336Z,88.06
2023-01-30T13:38:11.738Z,88.37
2023-01-30T13:40:45.290Z,88.45
2023-01-30T13:43:23.230Z,87.43
2023-01-30T13:45:54.818Z,88.80
2023-01-30T13:48:46.277Z,87.26
2023-01-30T13:51:35.651Z,87.68
2023-01-30T13:54:15.674Z,88.78
2023-01-30T13:56:50.775Z,87.96
2023-01-30T13:59:30.606Z,87.95
2023-01-30T14:02:22.094Z,87.32
2023-01-30T14:04:55.881Z,88.63
2023-01-30T14:07:31.481Z,87.42
2023-01-30T14:10:20.472Z,87.48
2023-01-30T14:12:53.140Z,88.15
2023-01-30T14:15:29.125Z,88.25
2023-01-30T14:18:06.280Z,87.51
2023-01-30T14:20:40.669Z,87.66
2023-01-30T14:23:24.883Z,87.02
2023-01-30T14:25:56.737Z,86.67
2023-01-30T14:28:56.158Z,87.79
2023-01-30T14:31:52.515Z,88.40
2023-01-30T14:34:46.112Z,88.01
2023-01-30T14:37:58.704Z,87.52
2023-01-30T14:41:01.377Z,88.85
2023-01-30T14:43:53.055Z,89.00
2023-01-30T14:46:54.398Z,88.61
2023-01-30T14:49:36.305Z,87.81
2023-01-30T14:52:06.857Z,88.50
2023-01-30T14:54:47.530Z,87.45
2023-01-30T14:57:22.454Z,86.76
2023-01-30T15:00:14.922Z,87.40
2023-01-30T15:02:53.146Z,88.13
2023-01-30T15:05:30.484Z,87.54
2023-01-30T15:08:06.438Z,88.08
2023-01-30T15:10:53.288Z,87.54
2023-01-30T15:13:44.017Z,88.04
2023-01-30T15:16:36.527Z,87.10
2023-01-30T15:19:20.613Z,87.47
2023-01-30T15:22:09.633Z,86.84
2023-01-30T15:25:17.599Z,86.99
2023-01-30T15:27:58.984Z,87.18
2023-01-30T15:30:46.683Z,87.54
2023-01-30T15:33:31.067Z,88.07
2023-01-30T15:36:02.401Z,88.27
2023-01-30T15:38:34.333Z,87.93
2023-01-30T15:41:06.685Z,88.18
2023-01-30T15:44:00.521Z,87.56
2023-01-30T15:46:40.980Z,88.45
2023-01-30T15:49:44.017Z,88.13
2023-01-30T15:52:18.563Z,88.42
2023-01-30T15:54:52.664Z,88.73
2023-01-30T15:57:29.427Z,88.29
2023-01-30T16:00:00.875Z,89.11
2023-01-30T16:02:34.171Z,88.81
2023-01-30T16:05:17.776Z,88.85
2023-01-30T16:07:48.867Z,89.24
2023-01-30T16:10:20.782Z,89.50
2023-01-30T16:12:54.689Z,89.61
2023-01-30T16:15:32.893Z,89.14
2023-01-30T16:18:07.323Z,89.34
2023-01-30T16:21:00.479Z,90.01
2023-01-30T16:23:34.643Z,89.62
2023-01-30T16:26:06.651Z,89.85
2023-01-30T16:28:36.787Z,90.21
2023-01-30T16:31:09.865Z,90.34
2023-01-30T16:33:40.490Z,90.33
2023-01-30T16:36:33.860Z,89.65
2023-01-30T16:39:03.805Z,90.28
2023-01-30T16:41:36.044Z,90.47
2023-01-30T16:44:21.689Z,90.54
2023-01-30T16:46:58.666Z,90.74
2023-01-30T16:49:45.630Z,90.44
2023-01-30T16:52:25.811Z,90.83
2023-01-30T16:54:57.480Z,91.69
2023-01-30T16:57:39.949Z,91.08
2023-01-30T17:00:22.965Z,91.66
2023-01-30T17:02:57.094Z,92.37
2023-01-30T17:05:29.424Z,91.79
2023-01-30T17:08:01.858Z,92.07
2023-01-30T17:10:57.585Z,92.10
2023-01-30T17:13:35.875Z,91.85
2023-01-30T17:16:25.522Z,92.06
2023-01-30T17:18:58.325Z,92.60
2023-01-30T17:21:33.285Z,92.83
2023-01-30T17:24:08.214Z,92.74
2023-01-30T17:26:40.930Z,92.84
2023-01-30T17:29:23.319Z,92.76
2023-01-30T17:32:02.370Z,93.12
2023-01-30T17:34:32.153Z,93.61
2023-01-30T17:37:01.887Z,93.37
2023-01-30T17:39:34.447Z,92.81
2023-01-30T17:42:04.354Z,92.84
2023-01-30T17:44:34.366Z,92.69
2023-01-30T17:47:04.241Z,93.04
2023-01-30T17:49:34.010Z,93.06
2023-01-30T17:52:04.331Z,92.98
2023-01-30T17:54:36.973Z,92.79
2023-01-30T17:57:09.854Z,92.89
2023-01-30T17:59:39.789Z,92.98
2023-01-30T18:02:12.196Z,93.43
2023-01-30T18:04:42.537Z,93.60
2023-01-30T18:07:18.579Z,93.60
2023-01-30T18:09:50.992Z,93.90
2023-01-30T18:12:21.102Z,94.02
2023-01-30T18:14:50.805Z,94.00
2023-01-30T18:17:21.438Z,94.25
2023-01-30T18:19:51.167Z,93.79
2023-01-30T18:22:20.987Z,93.88
2023-01-30T18:24:53.823Z,93.80
2023-01-30T18:27:23.552Z,93.85
2023-01-30T18:29:53.327Z,93.90
2023-01-30T18:32:23.203Z,94.31
2023-01-30T18:34:53.080Z,94.78
2023-01-30T18:37:23.140Z,94.68
2023-01-30T18:39:55.565Z,95.03
2023-01-30T18:42:25.586Z,95.19
2023-01-30T18:44:55.467Z,95.31
2023-01-30T18:47:25.276Z,95.15
2023-01-30T18:49:55.802Z,95.08
2023-01-30T18:52:25.970Z,94.91
2023-01-30T18:54:58.450Z,94.56
2023-01-30T18:57:28.345Z,94.14
2023-01-30T18:59:58.037Z,94.04
2023-01-30T19:02:27.915Z,94.30
2023-01-30T19:04:57.799Z,94.42
2023-01-30T19:07:27.761Z,94.26
2023-01-30T19:10:00.265Z,94.23
2023-01-30T19:12:42.598Z,94.25
2023-01-30T19:15:13.388Z,94.34
2023-01-30T19:17:43.239Z,94.43
2023-01-30T19:20:15.142Z,94.16
2023-01-30T19:22:44.920Z,94.86
2023-01-30T19:25:17.589Z,95.25
2023-01-30T19:27:47.512Z,94.74
2023-01-30T19:30:18.892Z,95.04
2023-01-30T19:32:48.999Z,95.25
2023-01-30T19:35:21.583Z,95.14
2023-01-30T19:37:55.230Z,95.17
2023-01-30T19:40:27.696Z,94.94
2023-01-30T19:43:05.704Z,94.92
2023-01-30T19:45:40.422Z,95.27
2023-01-30T19:48:11.804Z,95.51
2023-01-30T19:50:41.855Z,95.41
2023-01-30T19:53:12.025Z,95.86
2023-01-30T19:55:44.475Z,95.53
2023-01-30T19:58:14.484Z,95.70
2023-01-30T20:00:44.307Z,96.26
2023-01-30T20:03:16.409Z,96.54
2023-01-30T20:05:46.704Z,96.38
2023-01-30T20:08:31.684Z,96.74
2023-01-30T20:11:07.861Z,97.67
2023-01-30T20:13:38.096Z,97.90
2023-01-30T20:16:08.978Z,97.00
2023-01-30T20:18:40.189Z,96.99
2023-01-30T20:21:11.972Z,97.83
2023-01-30T20:23:42.948Z,97.52
2023-01-30T20:26:20.236Z,97.60
2023-01-30T20:28:50.543Z,98.38
2023-01-30T20:31:22.612Z,98.71
2023-01-30T20:33:55.814Z,99.41
2023-01-30T20:36:27.443Z,98.78
2023-01-30T20:39:01.929Z,98.56
2023-01-30T20:41:37.290Z,99.04
2023-01-30T20:44:08.819Z,98.78
2023-01-30T20:46:41.919Z,98.35
2023-01-30T20:49:15.849Z,98.82
2023-01-30T20:51:46.305Z,98.52
2023-01-30T20:54:17.860Z,98.72
2023-01-30T20:56:53.029Z,98.25
2023-01-30T20:59:25.048Z,98.87
2023-01-30T21:01:55.859Z,98.80
2023-01-30T21:04:27.033Z,99.19
2023-01-30T21:06:56.986Z,99.20
2023-01-30T21:09:27.461Z,99.35
2023-01-30T21:12:00.099Z,99.41
2023-01-30T21:14:30.077Z,99.89
2023-01-30T21:17:00.267Z,99.24
2023-01-30T21:19:30.266Z,99.75
2023-01-30T21:22:04.535Z,99.33
2023-01-30T21:24:34.370Z,99.54
2023-01-30T21:27:07.304Z,99.42
2023-01-30T21:29:37.227Z,99.65
2023-01-30T21:32:07.400Z,99.77
2023-01-30T21:34:37.918Z,99.36
2023-01-30T21:37:20.110Z,98.99
2023-01-30T21:40:02.289Z,99.26
2023-01-30T21:42:47.190Z,99.40
2023-01-30T21:45:17.749Z,100.00
2023-01-30T21:47:47.816Z,99.67
2023-01-30T21:50:18.209Z,99.64
2023-01-30T21:52:48.007Z,100.00
2023-01-30T21:55:18.281Z,99.87
2023-01-30T21:57:51.995Z,99.98
2023-01-30T22:00:22.444Z,100.00
2023-01-30T22:02:52.983Z,99.89
2023-01-30T22:05:23.091Z,100.00
2023-01-30T22:07:52.983Z,100.00
2023-01-30T22:10:22.778Z,100.00
2023-01-30T22:12:55.286Z,99.87
2023-01-30T22:15:26.240Z,99.97
2023-01-30T22:17:55.996Z,99.89
2023-01-30T22:20:25.749Z,99.76
2023-01-30T22:22:55.556Z,100.00
2023-01-30T22:25:25.318Z,100.00
2023-01-30T22:27:58.293Z,100.00
2023-01-30T22:30:28.025Z,99.96
2023-01-30T22:32:58.322Z,99.99
2023-01-30T22:35:28.350Z,100.00
2023-01-30T22:37:58.109Z,99.94
2023-01-30T22:40:27.878Z,100.00
2023-01-30T22:43:03.107Z,100.00
2023-01-30T22:45:32.849Z,100.00
2023-01-30T22:48:02.639Z,100.00
2023-01-30T22:50:32.504Z,100.00
2023-01-30T22:53:02.435Z,100.00
2023-01-30T22:55:32.145Z,100.00
2023-01-30T22:58:04.517Z,100.00
2023-01-30T23:00:34.453Z,100.00
2023-01-30T23:03:04.630Z,100.00
2023-01-30T23:05:34.490Z,99.81
2023-01-30T23:08:04.643Z,99.84
2023-01-30T23:10:34.594Z,100.00
2023-01-30T23:13:15.414Z,100.00
2023-01-30T23:15:47.115Z,100.00
2023-01-30T23:18:29.605Z,100.00
2023-01-30T23:20:59.479Z,100.00
2023-01-30T23:23:32.285Z,100.00
2023-01-30T23:26:05.066Z,100.00
2023-01-30T23:28:38.141Z,100.00
2023-01-30T23:31:09.563Z,100.00
2023-01-30T23:33:40.301Z,100.00
2023-01-30T23:36:12.399Z,100.00
2023-01-30T23:38:42.844Z,100.00
2023-01-30T23:41:15.188Z,100.00
2023-01-30T23:43:49.483Z,100.00
2023-01-30T23:46:22.119Z,100.00
2023-01-30T23:48:53.369Z,100.00
2023-01-30T23:51:24.906Z,100.00
2023-01-30T23:53:55.601Z,100.00
2023-01-30T23:56:26.607Z,100.00
2023-01-30T23:58:59.501Z,100.00
